sensor_id;sensor_type;location;lat;lon;timestamp;P1;durP1;ratioP1;P2;durP2;ratioP2
67372;SDS011;54257;54.496;18.412;2023-04-19T00:02:12;11.60;;;3.60;;
67372;SDS011;54257;54.496;18.412;2023-04-19T00:04:39;10.70;;;4.40;;
67372;SDS011;54257;54.496;18.412;2023-04-19T00:07:07;7.40;;;3.80;;
67372;SDS011;54257;54.496;18.412;2023-04-19T00:09:34;6.50;;;3.40;;
67372;SDS011;54257;54.496;18.412;2023-04-19T00:12:02;7.70;;;3.40;;
67372;SDS011;54257;54.496;18.412;2023-04-19T00:14:29;6.30;;;3.20;;
67372;SDS011;54257;54.496;18.412;2023-04-19T00:16:56;7.20;;;3.00;;
67372;SDS011;54257;54.496;18.412;2023-04-19T00:19:23;6.30;;;2.90;;
67372;SDS011;54257;54.496;18.412;2023-04-19T00:21:52;5.00;;;3.10;;
67372;SDS011;54257;54.496;18.412;2023-04-19T00:24:19;8.50;;;3.00;;
67372;SDS011;54257;54.496;18.412;2023-04-19T00:26:46;6.30;;;3.60;;
67372;SDS011;54257;54.496;18.412;2023-04-19T00:29:14;5.60;;;3.40;;
67372;SDS011;54257;54.496;18.412;2023-04-19T00:31:40;8.20;;;3.20;;
67372;SDS011;54257;54.496;18.412;2023-04-19T00:34:07;5.70;;;2.90;;
67372;SDS011;54257;54.496;18.412;2023-04-19T00:36:34;6.30;;;2.70;;
67372;SDS011;54257;54.496;18.412;2023-04-19T00:39:02;10.20;;;3.70;;
67372;SDS011;54257;54.496;18.412;2023-04-19T00:41:29;6.90;;;3.10;;
67372;SDS011;54257;54.496;18.412;2023-04-19T00:43:56;7.30;;;3.30;;
67372;SDS011;54257;54.496;18.412;2023-04-19T00:46:24;5.30;;;2.70;;
67372;SDS011;54257;54.496;18.412;2023-04-19T00:48:52;5.70;;;2.80;;
67372;SDS011;54257;54.496;18.412;2023-04-19T00:51:19;8.60;;;3.40;;
67372;SDS011;54257;54.496;18.412;2023-04-19T00:53:47;6.00;;;2.90;;
67372;SDS011;54257;54.496;18.412;2023-04-19T00:56:14;4.90;;;2.70;;
67372;SDS011;54257;54.496;18.412;2023-04-19T00:58:43;7.50;;;3.80;;
67372;SDS011;54257;54.496;18.412;2023-04-19T01:01:11;10.20;;;3.20;;
67372;SDS011;54257;54.496;18.412;2023-04-19T01:03:39;8.90;;;3.70;;
67372;SDS011;54257;54.496;18.412;2023-04-19T01:06:06;5.90;;;3.00;;
67372;SDS011;54257;54.496;18.412;2023-04-19T01:08:33;6.50;;;3.20;;
67372;SDS011;54257;54.496;18.412;2023-04-19T01:11:00;4.90;;;3.20;;
67372;SDS011;54257;54.496;18.412;2023-04-19T01:13:28;8.00;;;3.40;;
67372;SDS011;54257;54.496;18.412;2023-04-19T01:15:55;8.40;;;3.00;;
67372;SDS011;54257;54.496;18.412;2023-04-19T01:18:23;5.50;;;3.20;;
67372;SDS011;54257;54.496;18.412;2023-04-19T01:20:51;5.90;;;2.80;;
67372;SDS011;54257;54.496;18.412;2023-04-19T01:23:18;5.40;;;2.90;;
67372;SDS011;54257;54.496;18.412;2023-04-19T01:25:47;5.90;;;3.70;;
67372;SDS011;54257;54.496;18.412;2023-04-19T01:28:16;6.40;;;3.10;;
67372;SDS011;54257;54.496;18.412;2023-04-19T01:30:43;7.20;;;3.20;;
67372;SDS011;54257;54.496;18.412;2023-04-19T01:33:10;6.00;;;2.80;;
67372;SDS011;54257;54.496;18.412;2023-04-19T01:35:41;7.40;;;3.50;;
67372;SDS011;54257;54.496;18.412;2023-04-19T01:38:08;9.10;;;2.90;;
67372;SDS011;54257;54.496;18.412;2023-04-19T01:40:34;7.70;;;3.20;;
67372;SDS011;54257;54.496;18.412;2023-04-19T01:43:01;9.10;;;3.10;;
67372;SDS011;54257;54.496;18.412;2023-04-19T01:45:28;9.10;;;3.30;;
67372;SDS011;54257;54.496;18.412;2023-04-19T01:47:59;8.10;;;3.40;;
67372;SDS011;54257;54.496;18.412;2023-04-19T01:50:30;6.60;;;3.00;;
67372;SDS011;54257;54.496;18.412;2023-04-19T01:52:58;6.60;;;3.40;;
67372;SDS011;54257;54.496;18.412;2023-04-19T01:55:26;6.10;;;3.40;;
67372;SDS011;54257;54.496;18.412;2023-04-19T01:57:55;6.50;;;3.30;;
67372;SDS011;54257;54.496;18.412;2023-04-19T02:00:22;6.20;;;3.40;;
67372;SDS011;54257;54.496;18.412;2023-04-19T02:02:49;5.60;;;3.40;;
67372;SDS011;54257;54.496;18.412;2023-04-19T02:05:16;6.60;;;3.30;;
67372;SDS011;54257;54.496;18.412;2023-04-19T02:07:43;5.30;;;3.20;;
67372;SDS011;54257;54.496;18.412;2023-04-19T02:10:10;7.40;;;3.30;;
67372;SDS011;54257;54.496;18.412;2023-04-19T02:12:38;5.70;;;3.60;;
67372;SDS011;54257;54.496;18.412;2023-04-19T02:15:06;8.10;;;3.50;;
67372;SDS011;54257;54.496;18.412;2023-04-19T02:17:34;6.80;;;3.60;;
67372;SDS011;54257;54.496;18.412;2023-04-19T02:20:01;5.50;;;3.30;;
67372;SDS011;54257;54.496;18.412;2023-04-19T02:22:30;8.00;;;3.70;;
67372;SDS011;54257;54.496;18.412;2023-04-19T02:24:57;7.40;;;3.40;;
67372;SDS011;54257;54.496;18.412;2023-04-19T02:27:25;6.20;;;4.20;;
67372;SDS011;54257;54.496;18.412;2023-04-19T02:29:52;8.90;;;3.80;;
67372;SDS011;54257;54.496;18.412;2023-04-19T02:32:19;7.50;;;3.50;;
67372;SDS011;54257;54.496;18.412;2023-04-19T02:34:46;6.40;;;3.70;;
67372;SDS011;54257;54.496;18.412;2023-04-19T02:37:13;7.20;;;3.50;;
67372;SDS011;54257;54.496;18.412;2023-04-19T02:39:41;6.80;;;3.30;;
67372;SDS011;54257;54.496;18.412;2023-04-19T02:42:08;7.70;;;3.40;;
67372;SDS011;54257;54.496;18.412;2023-04-19T02:44:35;10.40;;;3.70;;
67372;SDS011;54257;54.496;18.412;2023-04-19T02:47:02;5.40;;;3.60;;
67372;SDS011;54257;54.496;18.412;2023-04-19T02:49:29;7.30;;;3.30;;
67372;SDS011;54257;54.496;18.412;2023-04-19T02:52:00;6.40;;;3.00;;
67372;SDS011;54257;54.496;18.412;2023-04-19T02:54:27;5.10;;;3.00;;
67372;SDS011;54257;54.496;18.412;2023-04-19T02:56:54;9.80;;;3.80;;
67372;SDS011;54257;54.496;18.412;2023-04-19T02:59:23;7.30;;;3.90;;
67372;SDS011;54257;54.496;18.412;2023-04-19T03:01:50;7.40;;;3.90;;
67372;SDS011;54257;54.496;18.412;2023-04-19T03:04:17;6.30;;;4.00;;
67372;SDS011;54257;54.496;18.412;2023-04-19T03:06:44;6.40;;;3.60;;
67372;SDS011;54257;54.496;18.412;2023-04-19T03:09:12;4.90;;;3.40;;
67372;SDS011;54257;54.496;18.412;2023-04-19T03:11:39;6.10;;;4.10;;
67372;SDS011;54257;54.496;18.412;2023-04-19T03:14:06;8.00;;;4.40;;
67372;SDS011;54257;54.496;18.412;2023-04-19T03:16:34;7.40;;;3.90;;
67372;SDS011;54257;54.496;18.412;2023-04-19T03:19:02;11.30;;;4.20;;
67372;SDS011;54257;54.496;18.412;2023-04-19T03:21:29;6.80;;;4.00;;
67372;SDS011;54257;54.496;18.412;2023-04-19T03:23:57;8.40;;;4.00;;
67372;SDS011;54257;54.496;18.412;2023-04-19T03:26:24;8.40;;;4.20;;
67372;SDS011;54257;54.496;18.412;2023-04-19T03:28:52;6.80;;;3.90;;
67372;SDS011;54257;54.496;18.412;2023-04-19T03:31:19;8.00;;;4.20;;
67372;SDS011;54257;54.496;18.412;2023-04-19T03:33:46;8.50;;;3.60;;
67372;SDS011;54257;54.496;18.412;2023-04-19T03:36:14;9.50;;;4.50;;
67372;SDS011;54257;54.496;18.412;2023-04-19T03:38:41;10.00;;;3.90;;
67372;SDS011;54257;54.496;18.412;2023-04-19T03:41:23;7.20;;;3.70;;
67372;SDS011;54257;54.496;18.412;2023-04-19T03:43:51;6.80;;;3.50;;
67372;SDS011;54257;54.496;18.412;2023-04-19T03:46:19;5.80;;;4.10;;
67372;SDS011;54257;54.496;18.412;2023-04-19T03:48:46;8.20;;;3.60;;
67372;SDS011;54257;54.496;18.412;2023-04-19T03:51:13;5.60;;;3.50;;
67372;SDS011;54257;54.496;18.412;2023-04-19T03:53:41;7.80;;;4.10;;
67372;SDS011;54257;54.496;18.412;2023-04-19T03:56:09;6.00;;;3.90;;
67372;SDS011;54257;54.496;18.412;2023-04-19T03:58:36;7.70;;;4.10;;
67372;SDS011;54257;54.496;18.412;2023-04-19T04:01:03;8.10;;;3.90;;
67372;SDS011;54257;54.496;18.412;2023-04-19T04:03:32;8.40;;;4.70;;
67372;SDS011;54257;54.496;18.412;2023-04-19T04:05:59;6.60;;;3.80;;
67372;SDS011;54257;54.496;18.412;2023-04-19T04:08:27;6.20;;;3.80;;
67372;SDS011;54257;54.496;18.412;2023-04-19T04:10:54;8.10;;;3.70;;
67372;SDS011;54257;54.496;18.412;2023-04-19T04:13:21;11.40;;;3.70;;
67372;SDS011;54257;54.496;18.412;2023-04-19T04:15:48;7.70;;;4.00;;
67372;SDS011;54257;54.496;18.412;2023-04-19T04:18:16;6.60;;;3.80;;
67372;SDS011;54257;54.496;18.412;2023-04-19T04:20:43;9.00;;;4.40;;
67372;SDS011;54257;54.496;18.412;2023-04-19T04:23:13;8.80;;;3.70;;
67372;SDS011;54257;54.496;18.412;2023-04-19T04:25:40;8.80;;;4.10;;
67372;SDS011;54257;54.496;18.412;2023-04-19T04:28:08;7.80;;;4.00;;
67372;SDS011;54257;54.496;18.412;2023-04-19T04:30:36;10.00;;;3.80;;
67372;SDS011;54257;54.496;18.412;2023-04-19T04:33:06;8.40;;;4.70;;
67372;SDS011;54257;54.496;18.412;2023-04-19T04:35:34;7.40;;;4.10;;
67372;SDS011;54257;54.496;18.412;2023-04-19T04:38:01;7.10;;;4.10;;
67372;SDS011;54257;54.496;18.412;2023-04-19T04:40:29;6.90;;;3.70;;
67372;SDS011;54257;54.496;18.412;2023-04-19T04:42:56;5.80;;;3.40;;
67372;SDS011;54257;54.496;18.412;2023-04-19T04:45:23;6.60;;;3.80;;
67372;SDS011;54257;54.496;18.412;2023-04-19T04:47:50;7.30;;;3.70;;
67372;SDS011;54257;54.496;18.412;2023-04-19T04:50:18;7.20;;;3.50;;
67372;SDS011;54257;54.496;18.412;2023-04-19T04:52:45;9.50;;;4.50;;
67372;SDS011;54257;54.496;18.412;2023-04-19T04:55:12;6.90;;;3.60;;
67372;SDS011;54257;54.496;18.412;2023-04-19T04:57:40;6.80;;;4.10;;
67372;SDS011;54257;54.496;18.412;2023-04-19T05:00:07;6.30;;;3.80;;
67372;SDS011;54257;54.496;18.412;2023-04-19T05:02:37;5.30;;;3.30;;
67372;SDS011;54257;54.496;18.412;2023-04-19T05:05:04;5.20;;;3.50;;
67372;SDS011;54257;54.496;18.412;2023-04-19T05:07:31;10.10;;;4.30;;
67372;SDS011;54257;54.496;18.412;2023-04-19T05:09:58;10.40;;;3.70;;
67372;SDS011;54257;54.496;18.412;2023-04-19T05:12:26;6.90;;;4.30;;
67372;SDS011;54257;54.496;18.412;2023-04-19T05:14:53;6.50;;;4.20;;
67372;SDS011;54257;54.496;18.412;2023-04-19T05:17:20;9.40;;;3.20;;
67372;SDS011;54257;54.496;18.412;2023-04-19T05:19:50;6.30;;;3.40;;
67372;SDS011;54257;54.496;18.412;2023-04-19T05:22:18;5.40;;;3.40;;
67372;SDS011;54257;54.496;18.412;2023-04-19T05:24:45;6.10;;;3.80;;
67372;SDS011;54257;54.496;18.412;2023-04-19T05:27:12;6.00;;;3.70;;
67372;SDS011;54257;54.496;18.412;2023-04-19T05:29:39;7.40;;;3.60;;
67372;SDS011;54257;54.496;18.412;2023-04-19T05:32:10;8.50;;;4.10;;
67372;SDS011;54257;54.496;18.412;2023-04-19T05:34:40;8.80;;;3.80;;
67372;SDS011;54257;54.496;18.412;2023-04-19T05:37:07;7.00;;;3.50;;
67372;SDS011;54257;54.496;18.412;2023-04-19T05:39:34;6.00;;;3.50;;
67372;SDS011;54257;54.496;18.412;2023-04-19T05:42:01;6.90;;;4.30;;
67372;SDS011;54257;54.496;18.412;2023-04-19T05:44:29;6.20;;;3.10;;
67372;SDS011;54257;54.496;18.412;2023-04-19T05:46:56;9.40;;;4.50;;
67372;SDS011;54257;54.496;18.412;2023-04-19T05:49:23;6.30;;;3.30;;
67372;SDS011;54257;54.496;18.412;2023-04-19T05:51:50;7.20;;;3.10;;
67372;SDS011;54257;54.496;18.412;2023-04-19T05:54:18;8.10;;;3.70;;
67372;SDS011;54257;54.496;18.412;2023-04-19T05:56:45;7.30;;;3.70;;
67372;SDS011;54257;54.496;18.412;2023-04-19T05:59:12;8.70;;;3.10;;
67372;SDS011;54257;54.496;18.412;2023-04-19T06:01:40;5.40;;;3.40;;
67372;SDS011;54257;54.496;18.412;2023-04-19T06:04:07;7.20;;;3.30;;
67372;SDS011;54257;54.496;18.412;2023-04-19T06:06:34;8.70;;;3.80;;
67372;SDS011;54257;54.496;18.412;2023-04-19T06:09:01;5.40;;;3.10;;
67372;SDS011;54257;54.496;18.412;2023-04-19T06:11:29;7.40;;;3.70;;
67372;SDS011;54257;54.496;18.412;2023-04-19T06:13:57;8.20;;;3.20;;
67372;SDS011;54257;54.496;18.412;2023-04-19T06:16:24;4.90;;;3.00;;
67372;SDS011;54257;54.496;18.412;2023-04-19T06:18:51;14.80;;;3.70;;
67372;SDS011;54257;54.496;18.412;2023-04-19T06:21:18;5.10;;;3.70;;
67372;SDS011;54257;54.496;18.412;2023-04-19T06:23:45;9.20;;;3.80;;
67372;SDS011;54257;54.496;18.412;2023-04-19T06:26:12;5.20;;;3.00;;
67372;SDS011;54257;54.496;18.412;2023-04-19T06:28:42;6.90;;;3.50;;
67372;SDS011;54257;54.496;18.412;2023-04-19T06:31:09;6.30;;;3.40;;
67372;SDS011;54257;54.496;18.412;2023-04-19T06:33:38;7.40;;;3.50;;
67372;SDS011;54257;54.496;18.412;2023-04-19T06:36:05;4.80;;;2.80;;
67372;SDS011;54257;54.496;18.412;2023-04-19T06:38:33;5.10;;;3.70;;
67372;SDS011;54257;54.496;18.412;2023-04-19T06:41:01;5.00;;;2.90;;
67372;SDS011;54257;54.496;18.412;2023-04-19T06:43:28;6.20;;;3.10;;
67372;SDS011;54257;54.496;18.412;2023-04-19T06:45:58;5.20;;;3.10;;
67372;SDS011;54257;54.496;18.412;2023-04-19T06:48:26;7.70;;;3.40;;
67372;SDS011;54257;54.496;18.412;2023-04-19T06:50:53;10.00;;;3.10;;
67372;SDS011;54257;54.496;18.412;2023-04-19T06:53:22;5.70;;;3.30;;
67372;SDS011;54257;54.496;18.412;2023-04-19T06:55:57;5.30;;;3.20;;
67372;SDS011;54257;54.496;18.412;2023-04-19T06:58:27;6.90;;;2.80;;
67372;SDS011;54257;54.496;18.412;2023-04-19T07:00:55;6.30;;;3.10;;
67372;SDS011;54257;54.496;18.412;2023-04-19T07:03:22;7.30;;;3.10;;
67372;SDS011;54257;54.496;18.412;2023-04-19T07:05:49;7.50;;;3.50;;
67372;SDS011;54257;54.496;18.412;2023-04-19T07:08:21;4.10;;;3.00;;
67372;SDS011;54257;54.496;18.412;2023-04-19T07:10:49;8.80;;;3.40;;
67372;SDS011;54257;54.496;18.412;2023-04-19T07:13:16;6.20;;;3.40;;
67372;SDS011;54257;54.496;18.412;2023-04-19T07:15:43;7.80;;;3.30;;
67372;SDS011;54257;54.496;18.412;2023-04-19T07:18:11;7.20;;;2.70;;
67372;SDS011;54257;54.496;18.412;2023-04-19T07:20:40;7.00;;;3.00;;
67372;SDS011;54257;54.496;18.412;2023-04-19T07:23:10;5.90;;;2.80;;
67372;SDS011;54257;54.496;18.412;2023-04-19T07:25:37;7.00;;;3.00;;
67372;SDS011;54257;54.496;18.412;2023-04-19T07:28:04;7.70;;;3.20;;
67372;SDS011;54257;54.496;18.412;2023-04-19T07:30:31;7.80;;;3.00;;
67372;SDS011;54257;54.496;18.412;2023-04-19T07:32:58;8.70;;;3.40;;
67372;SDS011;54257;54.496;18.412;2023-04-19T07:35:25;4.10;;;3.10;;
67372;SDS011;54257;54.496;18.412;2023-04-19T07:37:52;5.70;;;2.90;;
67372;SDS011;54257;54.496;18.412;2023-04-19T07:40:19;8.40;;;2.90;;
67372;SDS011;54257;54.496;18.412;2023-04-19T07:42:46;9.00;;;3.30;;
67372;SDS011;54257;54.496;18.412;2023-04-19T07:45:13;4.10;;;2.80;;
67372;SDS011;54257;54.496;18.412;2023-04-19T07:47:40;5.10;;;3.20;;
67372;SDS011;54257;54.496;18.412;2023-04-19T07:50:07;10.80;;;3.90;;
67372;SDS011;54257;54.496;18.412;2023-04-19T07:52:35;8.30;;;3.00;;
67372;SDS011;54257;54.496;18.412;2023-04-19T07:55:02;10.60;;;3.10;;
67372;SDS011;54257;54.496;18.412;2023-04-19T07:57:29;8.40;;;3.00;;
67372;SDS011;54257;54.496;18.412;2023-04-19T07:59:57;8.60;;;3.20;;
67372;SDS011;54257;54.496;18.412;2023-04-19T08:02:25;5.10;;;3.10;;
67372;SDS011;54257;54.496;18.412;2023-04-19T08:04:55;11.50;;;3.30;;
67372;SDS011;54257;54.496;18.412;2023-04-19T08:07:23;6.30;;;3.20;;
67372;SDS011;54257;54.496;18.412;2023-04-19T08:09:51;8.20;;;2.90;;
67372;SDS011;54257;54.496;18.412;2023-04-19T08:12:18;5.70;;;3.60;;
67372;SDS011;54257;54.496;18.412;2023-04-19T08:14:45;5.50;;;3.00;;
67372;SDS011;54257;54.496;18.412;2023-04-19T08:17:14;6.50;;;3.10;;
67372;SDS011;54257;54.496;18.412;2023-04-19T08:19:43;5.60;;;3.10;;
67372;SDS011;54257;54.496;18.412;2023-04-19T08:22:10;5.30;;;3.10;;
67372;SDS011;54257;54.496;18.412;2023-04-19T08:24:37;11.50;;;3.30;;
67372;SDS011;54257;54.496;18.412;2023-04-19T08:27:04;4.40;;;2.80;;
67372;SDS011;54257;54.496;18.412;2023-04-19T08:29:31;6.20;;;3.40;;
67372;SDS011;54257;54.496;18.412;2023-04-19T08:31:59;5.60;;;3.20;;
67372;SDS011;54257;54.496;18.412;2023-04-19T08:34:27;7.20;;;3.50;;
67372;SDS011;54257;54.496;18.412;2023-04-19T08:36:54;6.00;;;3.40;;
67372;SDS011;54257;54.496;18.412;2023-04-19T08:39:22;10.00;;;3.10;;
67372;SDS011;54257;54.496;18.412;2023-04-19T08:41:49;5.80;;;3.80;;
67372;SDS011;54257;54.496;18.412;2023-04-19T08:44:17;5.30;;;3.30;;
67372;SDS011;54257;54.496;18.412;2023-04-19T08:46:47;8.00;;;4.10;;
67372;SDS011;54257;54.496;18.412;2023-04-19T08:49:16;6.80;;;3.40;;
67372;SDS011;54257;54.496;18.412;2023-04-19T08:51:47;8.10;;;3.90;;
67372;SDS011;54257;54.496;18.412;2023-04-19T08:54:20;6.20;;;3.50;;
67372;SDS011;54257;54.496;18.412;2023-04-19T08:56:47;5.90;;;3.40;;
67372;SDS011;54257;54.496;18.412;2023-04-19T08:59:14;6.60;;;3.30;;
67372;SDS011;54257;54.496;18.412;2023-04-19T09:01:41;4.90;;;3.30;;
67372;SDS011;54257;54.496;18.412;2023-04-19T09:04:08;6.70;;;3.90;;
67372;SDS011;54257;54.496;18.412;2023-04-19T09:06:36;5.00;;;3.10;;
67372;SDS011;54257;54.496;18.412;2023-04-19T09:11:51;7.10;;;3.60;;
67372;SDS011;54257;54.496;18.412;2023-04-19T09:14:19;6.90;;;3.80;;
67372;SDS011;54257;54.496;18.412;2023-04-19T09:16:48;5.80;;;3.40;;
67372;SDS011;54257;54.496;18.412;2023-04-19T09:19:17;8.40;;;3.70;;
67372;SDS011;54257;54.496;18.412;2023-04-19T09:21:44;6.00;;;3.30;;
67372;SDS011;54257;54.496;18.412;2023-04-19T09:24:11;13.20;;;4.40;;
67372;SDS011;54257;54.496;18.412;2023-04-19T09:26:39;6.50;;;3.70;;
67372;SDS011;54257;54.496;18.412;2023-04-19T09:29:20;5.00;;;3.80;;
67372;SDS011;54257;54.496;18.412;2023-04-19T09:31:57;7.00;;;3.70;;
67372;SDS011;54257;54.496;18.412;2023-04-19T09:34:24;7.70;;;3.60;;
67372;SDS011;54257;54.496;18.412;2023-04-19T09:36:53;6.50;;;3.50;;
67372;SDS011;54257;54.496;18.412;2023-04-19T09:39:31;7.90;;;4.00;;
67372;SDS011;54257;54.496;18.412;2023-04-19T09:42:00;8.20;;;3.70;;
67372;SDS011;54257;54.496;18.412;2023-04-19T09:44:27;6.60;;;3.80;;
67372;SDS011;54257;54.496;18.412;2023-04-19T09:46:54;6.80;;;4.00;;
67372;SDS011;54257;54.496;18.412;2023-04-19T09:49:22;7.80;;;5.00;;
67372;SDS011;54257;54.496;18.412;2023-04-19T09:51:50;8.60;;;4.20;;
67372;SDS011;54257;54.496;18.412;2023-04-19T09:54:19;11.90;;;4.40;;
67372;SDS011;54257;54.496;18.412;2023-04-19T09:56:50;5.90;;;4.00;;
67372;SDS011;54257;54.496;18.412;2023-04-19T09:59:18;7.20;;;4.60;;
67372;SDS011;54257;54.496;18.412;2023-04-19T10:01:46;9.00;;;5.00;;
67372;SDS011;54257;54.496;18.412;2023-04-19T10:04:21;8.00;;;4.90;;
67372;SDS011;54257;54.496;18.412;2023-04-19T10:06:50;7.20;;;4.80;;
67372;SDS011;54257;54.496;18.412;2023-04-19T10:09:18;8.30;;;4.70;;
67372;SDS011;54257;54.496;18.412;2023-04-19T10:11:48;7.80;;;5.00;;
67372;SDS011;54257;54.496;18.412;2023-04-19T10:14:26;11.70;;;5.20;;
67372;SDS011;54257;54.496;18.412;2023-04-19T10:16:58;8.10;;;4.90;;
67372;SDS011;54257;54.496;18.412;2023-04-19T10:19:28;7.30;;;4.70;;
67372;SDS011;54257;54.496;18.412;2023-04-19T10:21:57;8.20;;;5.20;;
67372;SDS011;54257;54.496;18.412;2023-04-19T10:24:24;8.90;;;5.10;;
67372;SDS011;54257;54.496;18.412;2023-04-19T10:29:56;9.80;;;5.10;;
67372;SDS011;54257;54.496;18.412;2023-04-19T10:32:37;10.00;;;4.90;;
67372;SDS011;54257;54.496;18.412;2023-04-19T10:35:07;8.90;;;5.30;;
67372;SDS011;54257;54.496;18.412;2023-04-19T10:37:37;9.40;;;5.10;;
67372;SDS011;54257;54.496;18.412;2023-04-19T10:40:07;10.50;;;4.60;;
67372;SDS011;54257;54.496;18.412;2023-04-19T10:45:36;10.40;;;4.90;;
67372;SDS011;54257;54.496;18.412;2023-04-19T10:48:03;8.30;;;4.80;;
67372;SDS011;54257;54.496;18.412;2023-04-19T10:50:56;8.80;;;4.70;;
67372;SDS011;54257;54.496;18.412;2023-04-19T10:53:49;10.20;;;5.20;;
67372;SDS011;54257;54.496;18.412;2023-04-19T11:01:42;8.70;;;5.50;;
67372;SDS011;54257;54.496;18.412;2023-04-19T11:04:15;6.20;;;4.50;;
67372;SDS011;54257;54.496;18.412;2023-04-19T11:11:49;12.20;;;5.20;;
67372;SDS011;54257;54.496;18.412;2023-04-19T11:14:17;8.40;;;5.20;;
67372;SDS011;54257;54.496;18.412;2023-04-19T11:16:46;7.70;;;5.10;;
67372;SDS011;54257;54.496;18.412;2023-04-19T11:19:16;8.70;;;5.30;;
67372;SDS011;54257;54.496;18.412;2023-04-19T11:21:44;11.00;;;5.80;;
67372;SDS011;54257;54.496;18.412;2023-04-19T11:24:12;7.90;;;6.10;;
67372;SDS011;54257;54.496;18.412;2023-04-19T11:26:44;8.60;;;4.80;;
67372;SDS011;54257;54.496;18.412;2023-04-19T11:29:11;9.40;;;4.90;;
67372;SDS011;54257;54.496;18.412;2023-04-19T11:31:39;14.60;;;6.50;;
67372;SDS011;54257;54.496;18.412;2023-04-19T11:34:06;11.50;;;5.00;;
67372;SDS011;54257;54.496;18.412;2023-04-19T11:36:33;11.20;;;4.80;;
67372;SDS011;54257;54.496;18.412;2023-04-19T11:39:05;10.40;;;5.10;;
67372;SDS011;54257;54.496;18.412;2023-04-19T11:41:39;10.50;;;5.60;;
67372;SDS011;54257;54.496;18.412;2023-04-19T11:44:12;7.20;;;4.90;;
67372;SDS011;54257;54.496;18.412;2023-04-19T11:46:40;12.60;;;5.60;;
67372;SDS011;54257;54.496;18.412;2023-04-19T11:49:08;9.60;;;5.00;;
67372;SDS011;54257;54.496;18.412;2023-04-19T11:51:39;12.60;;;6.00;;
67372;SDS011;54257;54.496;18.412;2023-04-19T11:54:11;9.00;;;5.10;;
67372;SDS011;54257;54.496;18.412;2023-04-19T11:56:55;14.00;;;5.80;;
67372;SDS011;54257;54.496;18.412;2023-04-19T11:59:27;14.10;;;5.30;;
67372;SDS011;54257;54.496;18.412;2023-04-19T12:01:56;10.70;;;6.10;;
67372;SDS011;54257;54.496;18.412;2023-04-19T12:04:32;9.90;;;5.90;;
67372;SDS011;54257;54.496;18.412;2023-04-19T12:07:01;12.40;;;6.00;;
67372;SDS011;54257;54.496;18.412;2023-04-19T12:09:31;9.50;;;5.60;;
67372;SDS011;54257;54.496;18.412;2023-04-19T12:12:00;10.70;;;5.50;;
67372;SDS011;54257;54.496;18.412;2023-04-19T12:14:28;12.20;;;6.40;;
67372;SDS011;54257;54.496;18.412;2023-04-19T12:17:10;11.40;;;6.00;;
67372;SDS011;54257;54.496;18.412;2023-04-19T12:19:43;13.80;;;5.80;;
67372;SDS011;54257;54.496;18.412;2023-04-19T12:22:14;13.90;;;5.70;;
67372;SDS011;54257;54.496;18.412;2023-04-19T12:24:48;14.60;;;5.00;;
67372;SDS011;54257;54.496;18.412;2023-04-19T12:27:17;8.80;;;5.30;;
67372;SDS011;54257;54.496;18.412;2023-04-19T12:29:44;10.10;;;5.50;;
67372;SDS011;54257;54.496;18.412;2023-04-19T12:32:12;9.90;;;5.50;;
67372;SDS011;54257;54.496;18.412;2023-04-19T12:34:41;14.80;;;5.60;;
67372;SDS011;54257;54.496;18.412;2023-04-19T12:37:08;10.70;;;5.00;;
67372;SDS011;54257;54.496;18.412;2023-04-19T12:39:35;8.20;;;4.60;;
67372;SDS011;54257;54.496;18.412;2023-04-19T12:42:03;8.90;;;4.10;;
67372;SDS011;54257;54.496;18.412;2023-04-19T12:44:31;9.50;;;5.50;;
67372;SDS011;54257;54.496;18.412;2023-04-19T12:46:58;11.00;;;5.30;;
67372;SDS011;54257;54.496;18.412;2023-04-19T12:49:26;8.00;;;4.20;;
67372;SDS011;54257;54.496;18.412;2023-04-19T12:51:53;8.80;;;5.20;;
67372;SDS011;54257;54.496;18.412;2023-04-19T12:54:20;8.80;;;5.20;;
67372;SDS011;54257;54.496;18.412;2023-04-19T12:56:47;7.80;;;5.00;;
67372;SDS011;54257;54.496;18.412;2023-04-19T12:59:14;8.80;;;4.60;;
67372;SDS011;54257;54.496;18.412;2023-04-19T13:01:41;9.50;;;4.70;;
67372;SDS011;54257;54.496;18.412;2023-04-19T13:04:08;10.80;;;4.40;;
67372;SDS011;54257;54.496;18.412;2023-04-19T13:06:37;8.90;;;4.80;;
67372;SDS011;54257;54.496;18.412;2023-04-19T13:09:08;12.10;;;5.10;;
67372;SDS011;54257;54.496;18.412;2023-04-19T13:11:37;10.20;;;4.50;;
67372;SDS011;54257;54.496;18.412;2023-04-19T13:14:06;12.20;;;4.60;;
67372;SDS011;54257;54.496;18.412;2023-04-19T13:16:51;7.20;;;4.20;;
67372;SDS011;54257;54.496;18.412;2023-04-19T13:19:20;11.50;;;5.70;;
67372;SDS011;54257;54.496;18.412;2023-04-19T13:21:48;8.90;;;4.90;;
67372;SDS011;54257;54.496;18.412;2023-04-19T13:24:16;12.10;;;5.70;;
67372;SDS011;54257;54.496;18.412;2023-04-19T13:26:43;8.60;;;5.20;;
67372;SDS011;54257;54.496;18.412;2023-04-19T13:29:12;7.70;;;4.90;;
67372;SDS011;54257;54.496;18.412;2023-04-19T13:31:42;10.10;;;4.40;;
67372;SDS011;54257;54.496;18.412;2023-04-19T13:34:10;7.40;;;4.50;;
67372;SDS011;54257;54.496;18.412;2023-04-19T13:36:39;9.80;;;5.20;;
67372;SDS011;54257;54.496;18.412;2023-04-19T13:39:07;12.90;;;4.20;;
67372;SDS011;54257;54.496;18.412;2023-04-19T13:41:42;8.40;;;4.60;;
67372;SDS011;54257;54.496;18.412;2023-04-19T13:44:12;10.40;;;4.40;;
67372;SDS011;54257;54.496;18.412;2023-04-19T13:46:43;8.80;;;4.30;;
67372;SDS011;54257;54.496;18.412;2023-04-19T13:49:11;7.40;;;4.20;;
67372;SDS011;54257;54.496;18.412;2023-04-19T13:51:38;7.70;;;4.50;;
67372;SDS011;54257;54.496;18.412;2023-04-19T13:54:05;11.60;;;5.00;;
67372;SDS011;54257;54.496;18.412;2023-04-19T13:56:36;10.00;;;4.80;;
67372;SDS011;54257;54.496;18.412;2023-04-19T13:59:03;7.60;;;5.10;;
67372;SDS011;54257;54.496;18.412;2023-04-19T14:01:30;8.20;;;5.00;;
67372;SDS011;54257;54.496;18.412;2023-04-19T14:04:02;8.60;;;4.70;;
67372;SDS011;54257;54.496;18.412;2023-04-19T14:06:29;9.00;;;4.50;;
67372;SDS011;54257;54.496;18.412;2023-04-19T14:08:58;8.70;;;4.90;;
67372;SDS011;54257;54.496;18.412;2023-04-19T14:11:26;9.90;;;4.60;;
67372;SDS011;54257;54.496;18.412;2023-04-19T14:13:54;13.10;;;5.60;;
67372;SDS011;54257;54.496;18.412;2023-04-19T14:16:22;11.70;;;4.90;;
67372;SDS011;54257;54.496;18.412;2023-04-19T14:18:51;10.50;;;4.40;;
67372;SDS011;54257;54.496;18.412;2023-04-19T14:21:19;9.70;;;4.50;;
67372;SDS011;54257;54.496;18.412;2023-04-19T14:23:46;9.00;;;4.50;;
67372;SDS011;54257;54.496;18.412;2023-04-19T14:26:16;7.30;;;4.30;;
67372;SDS011;54257;54.496;18.412;2023-04-19T14:28:44;6.80;;;4.70;;
67372;SDS011;54257;54.496;18.412;2023-04-19T14:31:14;9.20;;;4.00;;
67372;SDS011;54257;54.496;18.412;2023-04-19T14:33:45;7.40;;;4.20;;
67372;SDS011;54257;54.496;18.412;2023-04-19T14:36:13;11.50;;;4.60;;
67372;SDS011;54257;54.496;18.412;2023-04-19T14:38:44;9.50;;;4.60;;
67372;SDS011;54257;54.496;18.412;2023-04-19T14:41:11;7.20;;;4.20;;
67372;SDS011;54257;54.496;18.412;2023-04-19T14:43:39;7.80;;;4.10;;
67372;SDS011;54257;54.496;18.412;2023-04-19T14:46:06;10.80;;;4.50;;
67372;SDS011;54257;54.496;18.412;2023-04-19T14:48:34;9.10;;;4.80;;
67372;SDS011;54257;54.496;18.412;2023-04-19T14:51:01;8.20;;;4.40;;
67372;SDS011;54257;54.496;18.412;2023-04-19T14:53:30;7.90;;;4.20;;
67372;SDS011;54257;54.496;18.412;2023-04-19T14:55:57;15.40;;;4.70;;
67372;SDS011;54257;54.496;18.412;2023-04-19T14:58:25;7.30;;;4.10;;
67372;SDS011;54257;54.496;18.412;2023-04-19T15:00:52;8.20;;;4.60;;